createdAt,value
2018-02-19T00:01:04.743Z,29.80
2018-02-19T00:02:11.528Z,30.20
2018-02-19T00:03:18.367Z,30.10
2018-02-19T00:04:25.091Z,33.20
2018-02-19T00:05:31.889Z,28.20
2018-02-19T00:06:38.620Z,29.10
2018-02-19T00:07:45.456Z,26.80
2018-02-19T00:08:52.172Z,30.90
2018-02-19T00:09:58.924Z,31.20
2018-02-19T00:11:05.668Z,27.90
2018-02-19T00:12:12.529Z,34.00
2018-02-19T00:13:19.276Z,32.60
2018-02-19T00:14:26.059Z,27.90
2018-02-19T00:15:32.789Z,29.00
2018-02-19T00:16:39.636Z,27.20
2018-02-19T00:17:46.362Z,29.20
2018-02-19T00:18:53.175Z,33.80
2018-02-19T00:20:00.133Z,34.60
2018-02-19T00:21:06.873Z,31.60
2018-02-19T00:22:13.612Z,31.70
2018-02-19T00:23:20.320Z,32.10
2018-02-19T00:24:27.041Z,29.10
2018-02-19T00:25:33.822Z,30.70
2018-02-19T00:26:40.556Z,30.50
2018-02-19T00:27:47.288Z,29.50
2018-02-19T00:28:54.023Z,30.70
2018-02-19T00:30:00.816Z,29.80
2018-02-19T00:31:07.683Z,33.30
2018-02-19T00:32:14.412Z,34.90
2018-02-19T00:33:21.161Z,34.00
2018-02-19T00:34:28.028Z,30.70
2018-02-19T00:35:34.772Z,33.80
2018-02-19T00:36:41.529Z,41.20
2018-02-19T00:37:48.240Z,31.40
2018-02-19T00:38:55.096Z,36.60
2018-02-19T00:40:01.920Z,33.00
2018-02-19T00:41:08.656Z,33.00
2018-02-19T00:42:15.380Z,30.00
2018-02-19T00:43:22.196Z,32.70
2018-02-19T00:44:28.956Z,34.00
2018-02-19T00:45:35.720Z,32.90
2018-02-19T00:46:42.432Z,31.30
2018-02-19T00:47:49.152Z,34.70
2018-02-19T00:48:55.937Z,34.50
2018-02-19T00:50:02.681Z,32.80
2018-02-19T00:51:09.432Z,32.00
2018-02-19T00:52:24.100Z,32.60
2018-02-19T00:53:22.844Z,34.90
2018-02-19T00:54:29.681Z,35.70
2018-02-19T00:55:36.456Z,34.80
2018-02-19T00:56:43.196Z,36.40
2018-02-19T00:57:49.927Z,32.40
2018-02-19T00:58:56.777Z,31.20
2018-02-19T01:00:03.529Z,31.60
2018-02-19T01:01:10.309Z,30.90
2018-02-19T01:02:17.053Z,34.00
2018-02-19T01:03:23.861Z,31.70
2018-02-19T01:04:30.609Z,28.20
2018-02-19T01:05:37.374Z,31.60
2018-02-19T01:06:44.301Z,35.40
2018-02-19T01:07:51.066Z,35.30
2018-02-19T01:08:57.846Z,33.40
2018-02-19T01:10:04.669Z,35.70
2018-02-19T01:11:11.408Z,30.60
2018-02-19T01:12:18.201Z,35.50
2018-02-19T01:13:24.917Z,34.20
2018-02-19T01:14:31.624Z,31.60
2018-02-19T01:15:38.468Z,30.70
2018-02-19T01:16:45.188Z,36.90
2018-02-19T01:17:51.958Z,30.20
2018-02-19T01:18:58.675Z,28.30
2018-02-19T01:20:05.521Z,32.30
2018-02-19T01:21:12.515Z,30.80
2018-02-19T01:22:19.303Z,30.00
2018-02-19T01:23:26.032Z,33.80
2018-02-19T01:24:32.776Z,29.10
2018-02-19T01:25:39.490Z,39.40
2018-02-19T01:26:46.220Z,38.40
2018-02-19T01:27:53.149Z,34.80
2018-02-19T01:28:59.862Z,33.80
2018-02-19T01:30:06.613Z,39.10
2018-02-19T01:31:13.342Z,30.70
2018-02-19T01:32:20.129Z,36.30
2018-02-19T01:33:26.876Z,32.70
2018-02-19T01:34:33.608Z,30.10
2018-02-19T01:35:40.332Z,35.10
2018-02-19T01:36:47.052Z,30.60
2018-02-19T01:37:53.837Z,33.90
2018-02-19T01:39:00.721Z,34.60
2018-02-19T01:40:07.725Z,33.40
2018-02-19T01:41:14.456Z,30.80
2018-02-19T01:42:21.205Z,32.00
2018-02-19T01:43:27.961Z,35.20
2018-02-19T01:44:34.753Z,30.60
2018-02-19T01:45:41.492Z,33.10
2018-02-19T01:46:48.207Z,32.50
2018-02-19T01:47:54.960Z,32.20
2018-02-19T01:49:01.711Z,29.50
2018-02-19T01:50:08.488Z,30.30
2018-02-19T01:51:15.188Z,31.20
2018-02-19T01:52:21.941Z,32.60
2018-02-19T01:53:28.680Z,30.40
2018-02-19T01:54:35.429Z,29.30
2018-02-19T01:55:42.201Z,31.40
2018-02-19T01:56:48.910Z,29.30
2018-02-19T01:57:55.753Z,30.80
2018-02-19T01:59:02.463Z,30.70
2018-02-19T02:00:09.304Z,36.00
2018-02-19T02:01:16.038Z,35.30
2018-02-19T02:02:22.788Z,32.90
2018-02-19T02:03:29.506Z,36.50
2018-02-19T02:04:36.560Z,32.80
2018-02-19T02:05:43.325Z,39.30
2018-02-19T02:06:50.161Z,33.50
2018-02-19T02:07:56.897Z,40.90
2018-02-19T02:09:03.659Z,36.00
2018-02-19T02:10:10.372Z,36.00
2018-02-19T02:11:17.113Z,34.00
2018-02-19T02:12:23.901Z,33.40
2018-02-19T02:13:30.637Z,37.00
2018-02-19T02:14:37.383Z,29.90
2018-02-19T02:15:44.216Z,30.70
2018-02-19T02:16:50.979Z,34.50
2018-02-19T02:17:57.739Z,33.90
2018-02-19T02:19:04.484Z,32.70
2018-02-19T02:20:11.248Z,33.40
2018-02-19T02:21:18.101Z,31.90
2018-02-19T02:22:24.844Z,32.00
2018-02-19T02:23:31.623Z,30.90
2018-02-19T02:24:38.365Z,30.20
2018-02-19T02:25:47.768Z,31.90
2018-02-19T02:26:52.063Z,31.50
2018-02-19T02:27:58.797Z,32.00
2018-02-19T02:29:05.685Z,34.20
2018-02-19T02:30:12.436Z,33.60
2018-02-19T02:31:19.195Z,34.50
2018-02-19T02:32:26.025Z,34.10
2018-02-19T02:33:32.806Z,33.50
2018-02-19T02:34:39.629Z,39.50
2018-02-19T02:35:46.456Z,32.00
2018-02-19T02:36:53.355Z,35.30
2018-02-19T02:38:00.105Z,34.10
2018-02-19T02:39:06.920Z,31.60
2018-02-19T02:40:13.702Z,34.50
2018-02-19T02:41:20.459Z,40.50
2018-02-19T02:42:27.241Z,29.20
2018-02-19T02:43:34.009Z,39.80
2018-02-19T02:44:40.758Z,39.20
2018-02-19T02:45:47.534Z,37.50
2018-02-19T02:46:54.327Z,36.10
2018-02-19T02:48:01.139Z,34.50
2018-02-19T02:49:07.941Z,36.40
2018-02-19T02:50:14.724Z,37.10
2018-02-19T02:51:21.576Z,34.60
2018-02-19T02:52:28.316Z,38.50
2018-02-19T02:53:35.084Z,36.90
2018-02-19T02:54:41.833Z,35.10
2018-02-19T02:55:48.674Z,39.10
2018-02-19T02:56:55.464Z,34.20
2018-02-19T02:58:02.269Z,40.00
2018-02-19T02:59:09.140Z,34.50
2018-02-19T03:00:15.891Z,42.50
2018-02-19T03:01:22.658Z,38.90
2018-02-19T03:02:29.408Z,42.30
2018-02-19T03:03:36.218Z,36.30
2018-02-19T03:04:43.022Z,39.80
2018-02-19T03:05:49.761Z,38.60
2018-02-19T03:06:56.489Z,43.20
2018-02-19T03:08:03.307Z,42.00
2018-02-19T03:09:10.084Z,39.00
2018-02-19T03:10:16.869Z,40.50
2018-02-19T03:11:23.963Z,40.80
2018-02-19T03:12:30.708Z,38.30
2018-02-19T03:13:37.505Z,37.50
2018-02-19T03:14:44.261Z,44.50
2018-02-19T03:15:50.995Z,39.10
2018-02-19T03:16:57.744Z,37.30
2018-02-19T03:18:04.452Z,39.00
2018-02-19T03:19:11.283Z,42.00
2018-02-19T03:20:18.037Z,38.80
2018-02-19T03:21:24.773Z,36.70
2018-02-19T03:22:31.528Z,38.10
2018-02-19T03:23:38.371Z,35.80
2018-02-19T03:24:45.121Z,36.20
2018-02-19T03:25:51.898Z,36.80
2018-02-19T03:26:58.600Z,38.20
2018-02-19T03:28:05.337Z,35.30
2018-02-19T03:29:12.135Z,40.70
2018-02-19T03:30:18.888Z,39.40
2018-02-19T03:31:25.797Z,37.10
2018-02-19T03:32:32.612Z,36.20
2018-02-19T03:33:39.376Z,36.90
2018-02-19T03:34:46.104Z,33.20
2018-02-19T03:35:52.855Z,38.00
2018-02-19T03:36:59.701Z,40.10
2018-02-19T03:38:06.532Z,37.30
2018-02-19T03:39:13.256Z,38.90
2018-02-19T03:40:19.990Z,41.90
2018-02-19T03:41:26.819Z,40.90
2018-02-19T03:42:33.540Z,42.00
2018-02-19T03:43:40.276Z,38.70
2018-02-19T03:44:47.008Z,40.10
2018-02-19T03:45:53.754Z,38.60
2018-02-19T03:47:00.567Z,41.50
2018-02-19T03:48:07.312Z,40.80
2018-02-19T03:49:14.060Z,39.90
2018-02-19T03:50:20.792Z,41.90
2018-02-19T03:51:27.524Z,40.70
2018-02-19T03:52:34.319Z,42.40
2018-02-19T03:53:41.041Z,39.00
2018-02-19T03:54:47.782Z,42.50
2018-02-19T03:55:54.495Z,46.30
2018-02-19T03:57:01.253Z,39.50
2018-02-19T03:58:08.081Z,41.90
2018-02-19T03:59:14.791Z,42.60
2018-02-19T04:00:21.537Z,41.50
2018-02-19T04:01:28.239Z,42.00
2018-02-19T04:02:34.987Z,41.60
2018-02-19T04:03:41.687Z,40.50
2018-02-19T04:04:48.613Z,41.00
2018-02-19T04:05:55.353Z,41.00
2018-02-19T04:07:02.088Z,47.40
2018-02-19T04:08:08.845Z,45.30
2018-02-19T04:09:15.634Z,45.20
2018-02-19T04:10:22.352Z,42.50
2018-02-19T04:11:29.084Z,42.90
2018-02-19T04:12:35.919Z,39.70
2018-02-19T04:13:42.753Z,47.80
2018-02-19T04:14:49.458Z,41.40
2018-02-19T04:15:56.176Z,38.70
2018-02-19T04:17:02.911Z,41.60
2018-02-19T04:18:09.676Z,41.60
2018-02-19T04:19:16.492Z,47.70
2018-02-19T04:20:23.236Z,44.00
2018-02-19T04:21:29.944Z,40.30
2018-02-19T04:22:36.702Z,38.90
2018-02-19T04:23:43.437Z,40.20
2018-02-19T04:24:50.232Z,41.10
2018-02-19T04:25:56.976Z,43.10
2018-02-19T04:27:03.731Z,44.70
2018-02-19T04:28:10.488Z,42.50
2018-02-19T04:29:17.232Z,41.60
2018-02-19T04:30:23.962Z,41.10
2018-02-19T04:31:30.653Z,37.00
2018-02-19T04:32:37.416Z,40.40
2018-02-19T04:33:44.164Z,40.70
2018-02-19T04:34:50.923Z,41.20
2018-02-19T04:35:57.709Z,36.80
2018-02-19T04:37:04.412Z,42.30
2018-02-19T04:38:11.152Z,43.00
2018-02-19T04:39:17.937Z,42.20
2018-02-19T04:40:24.657Z,42.30
2018-02-19T04:41:31.445Z,41.20
2018-02-19T04:42:38.145Z,43.60
2018-02-19T04:43:44.894Z,39.40
2018-02-19T04:44:51.733Z,40.80
2018-02-19T04:45:58.564Z,44.50
2018-02-19T04:47:05.352Z,45.70
2018-02-19T04:48:12.156Z,43.70
2018-02-19T04:49:18.889Z,41.30
2018-02-19T04:50:25.681Z,45.30
2018-02-19T04:51:32.422Z,44.40
2018-02-19T04:52:39.165Z,41.20
2018-02-19T04:53:45.929Z,47.10
2018-02-19T04:54:52.801Z,41.40
2018-02-19T04:55:59.559Z,42.30
2018-02-19T04:57:06.314Z,40.90
2018-02-19T04:58:13.217Z,42.40
2018-02-19T04:59:19.958Z,40.70
2018-02-19T05:00:26.770Z,46.00
2018-02-19T05:01:33.502Z,39.70
2018-02-19T05:02:40.320Z,44.00
2018-02-19T05:03:47.033Z,45.00
2018-02-19T05:04:53.740Z,40.10
2018-02-19T05:06:00.525Z,42.80
2018-02-19T05:07:07.245Z,40.00
2018-02-19T05:08:13.956Z,42.80
2018-02-19T05:09:20.769Z,40.90
2018-02-19T05:10:27.521Z,41.30
2018-02-19T05:11:34.280Z,44.10
2018-02-19T05:12:41.058Z,39.30
2018-02-19T05:13:47.960Z,38.50
2018-02-19T05:14:54.724Z,43.00
2018-02-19T05:16:01.489Z,41.90
2018-02-19T05:17:08.354Z,45.40
2018-02-19T05:18:15.112Z,43.90
2018-02-19T05:19:21.864Z,44.40
2018-02-19T05:20:28.608Z,42.00
2018-02-19T05:21:35.472Z,43.70
2018-02-19T05:22:42.221Z,45.80
2018-02-19T05:23:48.981Z,44.50
2018-02-19T05:24:55.816Z,40.10
2018-02-19T05:26:02.577Z,43.50
2018-02-19T05:27:09.376Z,46.30
2018-02-19T05:28:16.122Z,41.70
2018-02-19T05:29:22.882Z,43.30
2018-02-19T05:30:29.797Z,46.10
2018-02-19T05:31:36.573Z,46.70
2018-02-19T05:32:43.334Z,44.60
2018-02-19T05:33:50.176Z,49.10
2018-02-19T05:34:56.936Z,49.50
2018-02-19T05:36:03.708Z,43.00
2018-02-19T05:37:10.468Z,40.50
2018-02-19T05:38:17.292Z,43.50
2018-02-19T05:39:24.018Z,43.60
2018-02-19T05:40:30.810Z,43.40
2018-02-19T05:41:37.581Z,41.50
2018-02-19T05:42:44.416Z,46.70
2018-02-19T05:43:51.237Z,44.10
2018-02-19T05:44:57.999Z,45.20
2018-02-19T05:46:05.056Z,48.90
2018-02-19T05:47:11.767Z,47.60
2018-02-19T05:48:18.800Z,42.70
2018-02-19T05:49:25.578Z,44.30
2018-02-19T05:50:32.621Z,45.00
2018-02-19T05:51:39.371Z,47.20
2018-02-19T05:52:46.357Z,49.90
2018-02-19T05:53:52.973Z,46.80
2018-02-19T05:54:59.745Z,46.90
2018-02-19T05:56:06.538Z,45.00
2018-02-19T05:57:13.415Z,44.90
2018-02-19T05:58:20.192Z,45.50
2018-02-19T05:59:26.969Z,46.90
2018-02-19T06:00:33.724Z,48.70
2018-02-19T06:01:40.548Z,46.40
2018-02-19T06:02:47.268Z,45.40
2018-02-19T06:03:54.036Z,47.80
2018-02-19T06:05:00.976Z,45.10
2018-02-19T06:06:07.741Z,44.80
2018-02-19T06:07:14.580Z,40.30
2018-02-19T06:08:21.432Z,48.40
2018-02-19T06:09:28.226Z,41.60
2018-02-19T06:10:34.988Z,42.90
2018-02-19T06:11:41.852Z,50.60
2018-02-19T06:12:48.649Z,49.00
2018-02-19T06:13:55.407Z,43.40
2018-02-19T06:15:02.270Z,51.70
2018-02-19T06:16:09.023Z,40.00
2018-02-19T06:17:15.791Z,43.70
2018-02-19T06:18:22.533Z,42.00
2018-02-19T06:19:29.594Z,38.20
2018-02-19T06:20:36.340Z,43.70
2018-02-19T06:21:43.149Z,43.50
2018-02-19T06:22:49.909Z,40.60
2018-02-19T06:23:56.659Z,41.90
2018-02-19T06:25:03.649Z,38.70
2018-02-19T06:26:10.399Z,40.20
2018-02-19T06:27:17.144Z,41.30
2018-02-19T06:28:23.944Z,37.40
2018-02-19T06:29:30.773Z,39.20
2018-02-19T06:30:37.552Z,36.60
2018-02-19T06:31:44.384Z,36.10
2018-02-19T06:32:51.152Z,36.80
2018-02-19T06:33:57.900Z,37.60
2018-02-19T06:35:04.673Z,39.00
2018-02-19T06:36:11.516Z,33.20
2018-02-19T06:37:18.273Z,35.50
2018-02-19T06:38:25.033Z,33.40
2018-02-19T06:39:31.784Z,33.80
2018-02-19T06:40:38.595Z,36.10
2018-02-19T06:41:45.385Z,38.20
2018-02-19T06:42:52.121Z,33.90
2018-02-19T06:43:58.868Z,35.60
2018-02-19T06:45:05.716Z,35.60
2018-02-19T06:46:12.452Z,33.30
2018-02-19T06:47:19.232Z,37.10
2018-02-19T06:48:25.978Z,31.20
2018-02-19T06:49:32.816Z,34.40
2018-02-19T06:50:39.577Z,38.30
2018-02-19T06:51:46.602Z,30.20
2018-02-19T06:52:53.356Z,32.40
2018-02-19T06:54:00.141Z,36.20
2018-02-19T06:55:06.869Z,31.80
2018-02-19T06:56:13.717Z,35.00
2018-02-19T06:57:20.484Z,35.60
2018-02-19T06:58:27.393Z,31.70
2018-02-19T06:59:34.155Z,32.20
2018-02-19T07:00:40.872Z,34.70
2018-02-19T07:01:47.617Z,32.20
2018-02-19T07:02:54.384Z,31.60
2018-02-19T07:04:01.129Z,30.80
2018-02-19T07:05:07.924Z,32.90
2018-02-19T07:06:14.690Z,32.80
2018-02-19T07:07:21.461Z,32.20
2018-02-19T07:08:28.229Z,29.40
2018-02-19T07:09:35.020Z,34.90
2018-02-19T07:10:41.740Z,34.60
2018-02-19T07:11:48.604Z,34.50
2018-02-19T07:12:55.472Z,34.80
2018-02-19T07:14:02.250Z,32.50
2018-02-19T07:15:09.001Z,32.00
2018-02-19T07:16:15.724Z,34.20
2018-02-19T07:17:22.561Z,32.50
2018-02-19T07:18:29.320Z,32.90
2018-02-19T07:19:36.105Z,35.00
2018-02-19T07:20:42.829Z,35.50
2018-02-19T07:21:49.693Z,35.20
2018-02-19T07:22:56.544Z,33.10
2018-02-19T07:24:03.606Z,36.20
2018-02-19T07:25:10.409Z,32.60
2018-02-19T07:26:17.378Z,30.60
2018-02-19T07:27:24.140Z,35.10
2018-02-19T07:28:30.920Z,31.90
2018-02-19T07:29:37.764Z,35.20
2018-02-19T07:30:44.510Z,34.00
2018-02-19T07:31:51.275Z,34.70
2018-02-19T07:32:57.995Z,36.40
2018-02-19T07:34:04.926Z,32.90
2018-02-19T07:35:11.692Z,34.50
2018-02-19T07:36:18.440Z,32.60
2018-02-19T07:37:25.290Z,33.60
2018-02-19T07:38:32.058Z,30.60
2018-02-19T07:39:38.829Z,32.60
2018-02-19T07:40:45.739Z,32.70
2018-02-19T07:41:52.504Z,36.30
2018-02-19T07:42:59.250Z,34.60
2018-02-19T07:44:05.989Z,30.70
2018-02-19T07:45:12.968Z,33.30
2018-02-19T07:46:19.717Z,29.10
2018-02-19T07:47:26.463Z,33.50
2018-02-19T07:48:33.365Z,34.10
2018-02-19T07:49:40.148Z,30.60
2018-02-19T07:50:46.913Z,33.30
2018-02-19T07:51:53.726Z,36.90
2018-02-19T07:53:00.457Z,34.90
2018-02-19T07:54:07.222Z,35.00
2018-02-19T07:55:13.944Z,32.40
2018-02-19T07:56:20.788Z,32.30
2018-02-19T07:57:27.524Z,33.10
2018-02-19T07:58:34.252Z,32.40
2018-02-19T07:59:40.998Z,30.40
2018-02-19T08:00:47.722Z,34.40
2018-02-19T08:01:54.526Z,35.30
2018-02-19T08:03:01.337Z,34.30
2018-02-19T08:04:08.173Z,31.70
2018-02-19T08:05:14.916Z,33.00
2018-02-19T08:06:21.672Z,35.10
2018-02-19T08:07:28.675Z,31.70
2018-02-19T08:08:35.395Z,32.60
2018-02-19T08:09:42.148Z,33.30
2018-02-19T08:10:48.905Z,32.10
2018-02-19T08:11:55.647Z,36.20
2018-02-19T08:13:02.432Z,34.00
2018-02-19T08:14:09.173Z,33.20
2018-02-19T08:15:15.943Z,34.20
2018-02-19T08:16:22.666Z,35.80
2018-02-19T08:17:29.560Z,31.90
2018-02-19T08:18:36.325Z,33.80
2018-02-19T08:19:43.055Z,33.80
2018-02-19T08:20:49.797Z,32.40
2018-02-19T08:21:56.665Z,34.70
2018-02-19T08:23:03.400Z,32.30
2018-02-19T08:24:10.132Z,33.90
2018-02-19T08:25:16.846Z,32.00
2018-02-19T08:26:23.636Z,33.90
2018-02-19T08:27:30.429Z,32.80
2018-02-19T08:28:37.169Z,34.80
2018-02-19T08:29:43.923Z,33.70
2018-02-19T08:30:50.640Z,34.50
2018-02-19T08:31:57.339Z,29.90
2018-02-19T08:33:04.268Z,37.50
2018-02-19T08:34:10.980Z,33.00
2018-02-19T08:35:17.725Z,34.40
2018-02-19T08:36:24.416Z,33.30
2018-02-19T08:37:31.107Z,34.20
2018-02-19T08:38:37.925Z,34.30
2018-02-19T08:39:44.760Z,37.20
2018-02-19T08:40:51.552Z,35.30
2018-02-19T08:41:58.351Z,36.60
2018-02-19T08:43:05.091Z,35.00
2018-02-19T08:44:11.832Z,30.00
2018-02-19T08:45:18.538Z,32.40
2018-02-19T08:46:25.297Z,37.30
2018-02-19T08:47:32.440Z,35.50
2018-02-19T08:48:39.076Z,34.10
2018-02-19T08:49:45.891Z,31.70
2018-02-19T08:50:52.693Z,29.90
2018-02-19T08:51:59.743Z,33.60
2018-02-19T08:53:06.578Z,31.50
2018-02-19T08:54:13.328Z,31.60
2018-02-19T08:55:20.143Z,34.30
2018-02-19T08:56:26.877Z,32.80
2018-02-19T08:57:33.646Z,34.10
2018-02-19T08:58:40.667Z,37.50
2018-02-19T08:59:47.407Z,32.50
2018-02-19T09:00:54.182Z,32.20
2018-02-19T09:02:00.915Z,32.10
2018-02-19T09:03:07.753Z,31.60
2018-02-19T09:04:14.492Z,33.50
2018-02-19T09:05:21.232Z,33.90
2018-02-19T09:06:27.978Z,34.50
2018-02-19T09:07:34.809Z,33.30
2018-02-19T09:08:41.548Z,31.10
2018-02-19T09:09:48.273Z,32.30
2018-02-19T09:10:55.032Z,35.00
2018-02-19T09:12:01.879Z,32.90
2018-02-19T09:13:08.956Z,32.70
2018-02-19T09:14:15.820Z,32.80
2018-02-19T09:15:22.571Z,33.40
2018-02-19T09:16:29.309Z,33.10
2018-02-19T09:17:36.009Z,34.50
2018-02-19T09:18:42.837Z,35.40
2018-02-19T09:19:49.547Z,32.10
2018-02-19T09:20:56.326Z,31.70
2018-02-19T09:22:03.088Z,34.20
2018-02-19T09:23:09.832Z,31.20
2018-02-19T09:24:16.621Z,30.90
2018-02-19T09:25:23.358Z,35.00
2018-02-19T09:26:30.140Z,37.20
2018-02-19T09:27:36.889Z,37.50
2018-02-19T09:28:43.614Z,32.80
2018-02-19T09:29:50.484Z,38.40
2018-02-19T09:30:57.254Z,36.60
2018-02-19T09:32:03.996Z,33.10
2018-02-19T09:33:10.737Z,34.10
2018-02-19T09:34:17.539Z,29.20
2018-02-19T09:35:24.298Z,32.20
2018-02-19T09:36:31.701Z,35.10
2018-02-19T09:37:38.029Z,38.10
2018-02-19T09:38:44.877Z,30.00
2018-02-19T09:39:51.827Z,32.50
2018-02-19T09:40:58.957Z,33.90
2018-02-19T09:42:05.687Z,35.60
2018-02-19T09:43:12.418Z,33.90
2018-02-19T09:44:19.184Z,30.80
2018-02-19T09:45:26.048Z,33.00
2018-02-19T09:46:32.803Z,35.10
2018-02-19T09:47:39.601Z,37.70
2018-02-19T09:48:46.341Z,36.50
2018-02-19T09:49:53.178Z,35.30
2018-02-19T09:50:59.897Z,32.50
2018-02-19T09:52:06.628Z,31.90
2018-02-19T09:53:13.393Z,33.10
2018-02-19T09:54:20.104Z,31.70
2018-02-19T09:55:27.280Z,31.80
2018-02-19T09:56:34.244Z,28.60
2018-02-19T09:57:41.117Z,37.10
2018-02-19T09:58:47.960Z,33.40
2018-02-19T09:59:54.692Z,31.10
2018-02-19T10:01:01.677Z,36.70
2018-02-19T10:02:08.532Z,33.00
2018-02-19T10:03:15.345Z,32.00
2018-02-19T10:04:22.235Z,31.90
2018-02-19T10:05:29.254Z,29.10
2018-02-19T10:06:36.033Z,36.90
2018-02-19T10:07:42.780Z,31.30
2018-02-19T10:08:49.585Z,31.90
2018-02-19T10:09:56.328Z,33.40
2018-02-19T10:11:03.148Z,30.20
2018-02-19T10:12:09.875Z,31.20
2018-02-19T10:13:16.955Z,32.00
2018-02-19T10:14:23.720Z,31.10
2018-02-19T10:15:30.533Z,33.60
2018-02-19T10:16:37.376Z,28.70
2018-02-19T10:17:44.108Z,30.70
2018-02-19T10:18:50.839Z,32.70
2018-02-19T10:19:57.577Z,31.70
2018-02-19T10:21:04.304Z,31.90
2018-02-19T10:22:11.162Z,31.80
2018-02-19T10:23:17.925Z,35.40
2018-02-19T10:24:24.700Z,35.70
2018-02-19T10:25:31.399Z,37.40
2018-02-19T10:26:38.429Z,33.30
2018-02-19T10:27:45.185Z,35.80
2018-02-19T10:28:51.948Z,33.30
2018-02-19T10:29:58.700Z,37.60
2018-02-19T10:31:05.437Z,35.60
2018-02-19T10:32:12.187Z,37.10
2018-02-19T10:33:18.920Z,34.00
2018-02-19T10:34:25.771Z,33.00
2018-02-19T10:35:32.492Z,31.10
2018-02-19T10:36:39.256Z,36.80
2018-02-19T10:37:46.005Z,32.90
2018-02-19T10:38:52.736Z,30.20
2018-02-19T10:39:59.516Z,34.90
2018-02-19T10:41:06.491Z,35.00
2018-02-19T10:42:13.320Z,32.60
2018-02-19T10:43:20.148Z,30.20
2018-02-19T10:44:26.947Z,32.20
2018-02-19T10:45:33.791Z,32.10
2018-02-19T10:46:40.552Z,35.60
2018-02-19T10:47:47.280Z,33.80
2018-02-19T10:48:54.016Z,29.10
2018-02-19T10:50:00.734Z,33.60
2018-02-19T10:51:07.520Z,32.80
2018-02-19T10:52:14.353Z,35.90
2018-02-19T10:53:21.084Z,35.00
2018-02-19T10:54:27.803Z,34.60
2018-02-19T10:55:34.623Z,32.90
2018-02-19T10:56:41.356Z,36.70
2018-02-19T10:57:48.094Z,32.90
2018-02-19T10:58:54.822Z,31.90
2018-02-19T11:00:01.662Z,33.00
2018-02-19T11:01:08.485Z,33.20
2018-02-19T11:02:15.179Z,33.90
2018-02-19T11:03:21.947Z,33.10
2018-02-19T11:04:28.819Z,30.90
2018-02-19T11:05:35.588Z,33.90
2018-02-19T11:06:42.340Z,35.90
2018-02-19T11:07:49.067Z,37.30
2018-02-19T11:08:55.796Z,33.90
2018-02-19T11:10:02.865Z,35.40
2018-02-19T11:11:09.686Z,32.90
2018-02-19T11:12:16.424Z,36.10
2018-02-19T11:13:23.236Z,32.70
2018-02-19T11:14:29.935Z,32.00
2018-02-19T11:15:36.766Z,35.80
2018-02-19T11:16:43.508Z,34.20
2018-02-19T11:17:50.273Z,31.50
2018-02-19T11:18:57.016Z,33.50
2018-02-19T11:20:03.828Z,34.40
2018-02-19T11:21:10.547Z,31.70
2018-02-19T11:22:17.285Z,35.10
2018-02-19T11:23:24.033Z,33.40
2018-02-19T11:24:30.722Z,30.00
2018-02-19T11:25:37.412Z,31.80
2018-02-19T11:26:44.109Z,34.30
2018-02-19T11:27:50.836Z,34.50
2018-02-19T11:28:57.576Z,30.30
2018-02-19T11:30:04.324Z,32.10
2018-02-19T11:31:11.029Z,30.60
2018-02-19T11:32:17.752Z,33.20
2018-02-19T11:33:24.504Z,39.30
2018-02-19T11:34:31.275Z,33.30
2018-02-19T11:35:38.011Z,31.40
2018-02-19T11:36:44.752Z,30.50
2018-02-19T11:37:51.581Z,40.00
2018-02-19T11:38:58.317Z,31.60
2018-02-19T11:40:05.045Z,32.10
2018-02-19T11:41:11.785Z,31.10
2018-02-19T11:42:18.513Z,29.50
2018-02-19T11:43:25.268Z,30.40
2018-02-19T11:44:32.040Z,35.30
2018-02-19T11:45:38.774Z,31.10
2018-02-19T11:46:45.507Z,33.80
2018-02-19T11:47:52.333Z,32.10
2018-02-19T11:48:59.040Z,31.80
2018-02-19T11:50:05.788Z,32.90
2018-02-19T11:51:12.525Z,35.00
2018-02-19T11:52:19.251Z,32.70
2018-02-19T11:53:25.953Z,30.60
2018-02-19T11:54:32.733Z,29.50
2018-02-19T11:55:39.507Z,30.50
2018-02-19T11:56:46.272Z,30.50
2018-02-19T11:57:53.157Z,32.90
2018-02-19T11:58:59.882Z,33.30
2018-02-19T12:00:06.620Z,30.90
2018-02-19T12:01:13.381Z,30.40
2018-02-19T12:02:20.105Z,30.80
2018-02-19T12:03:26.924Z,29.50
2018-02-19T12:04:33.628Z,32.10
2018-02-19T12:05:40.391Z,32.70
2018-02-19T12:06:47.136Z,29.60
2018-02-19T12:07:53.869Z,29.40
2018-02-19T12:09:00.651Z,33.00
2018-02-19T12:10:07.681Z,29.80
2018-02-19T12:11:14.468Z,30.30
2018-02-19T12:12:21.207Z,32.80
2018-02-19T12:13:27.963Z,32.10
2018-02-19T12:14:34.692Z,29.20
2018-02-19T12:15:41.536Z,34.50
2018-02-19T12:16:48.292Z,30.70
2018-02-19T12:17:55.044Z,33.00
2018-02-19T12:19:01.816Z,33.20
2018-02-19T12:20:08.619Z,31.60
2018-02-19T12:21:15.347Z,32.40
2018-02-19T12:22:22.149Z,31.60
2018-02-19T12:23:28.877Z,33.50
2018-02-19T12:24:35.688Z,35.60
2018-02-19T12:25:42.384Z,32.10
2018-02-19T12:26:49.135Z,28.30
2018-02-19T12:27:55.896Z,31.00
2018-02-19T12:29:02.755Z,30.00
2018-02-19T12:30:09.502Z,29.20
2018-02-19T12:31:16.284Z,30.00
2018-02-19T12:32:23.051Z,31.70
2018-02-19T12:33:29.925Z,31.80
2018-02-19T12:34:36.735Z,29.80
2018-02-19T12:35:43.468Z,32.10
2018-02-19T12:36:50.233Z,32.50
2018-02-19T12:37:56.979Z,30.10
2018-02-19T12:39:03.747Z,27.10
2018-02-19T12:40:10.491Z,32.00
2018-02-19T12:41:17.330Z,30.70
2018-02-19T12:42:24.089Z,32.00
2018-02-19T12:43:30.916Z,32.50
2018-02-19T12:44:37.732Z,30.20
2018-02-19T12:45:44.445Z,33.80
2018-02-19T12:46:51.180Z,31.20
2018-02-19T12:47:57.913Z,34.00
2018-02-19T12:49:04.689Z,33.40
2018-02-19T12:50:11.588Z,31.50
2018-02-19T12:51:18.364Z,33.60
2018-02-19T12:52:25.341Z,28.00
2018-02-19T12:53:32.101Z,28.30
2018-02-19T12:54:38.857Z,33.60
2018-02-19T12:55:45.747Z,30.80
2018-02-19T12:56:52.502Z,30.20
2018-02-19T12:57:59.357Z,30.00
2018-02-19T12:59:06.152Z,31.50
2018-02-19T13:00:12.899Z,34.10
2018-02-19T13:01:19.637Z,34.10
2018-02-19T13:02:26.634Z,31.60
2018-02-19T13:03:33.396Z,32.30
2018-02-19T13:04:40.108Z,33.90
2018-02-19T13:05:46.837Z,35.50
2018-02-19T13:06:53.641Z,31.30
2018-02-19T13:08:00.402Z,35.00
2018-02-19T13:09:07.180Z,31.90
2018-02-19T13:10:13.927Z,30.40
2018-02-19T13:11:20.723Z,32.00
2018-02-19T13:12:27.469Z,34.80
2018-02-19T13:13:34.305Z,32.10
2018-02-19T13:14:41.141Z,30.30
2018-02-19T13:15:47.916Z,31.70
2018-02-19T13:16:54.701Z,30.70
2018-02-19T13:18:01.659Z,33.20
2018-02-19T13:19:08.419Z,33.80
2018-02-19T13:20:15.167Z,33.70
2018-02-19T13:21:22.020Z,30.40
2018-02-19T13:22:28.786Z,33.90
2018-02-19T13:23:35.556Z,33.00
2018-02-19T13:24:42.426Z,35.40
2018-02-19T13:25:49.185Z,32.90
2018-02-19T13:26:55.967Z,32.60
2018-02-19T13:28:02.816Z,29.60
2018-02-19T13:29:09.593Z,33.00
2018-02-19T13:30:16.625Z,35.20
2018-02-19T13:31:23.375Z,34.10
2018-02-19T13:32:30.156Z,32.70
2018-02-19T13:33:36.909Z,33.50
2018-02-19T13:34:43.682Z,32.20
2018-02-19T13:35:50.436Z,30.70
2018-02-19T13:36:57.393Z,33.10
2018-02-19T13:38:04.153Z,33.00
2018-02-19T13:39:11.327Z,35.00
2018-02-19T13:40:18.381Z,32.90
2018-02-19T13:41:25.127Z,33.90
2018-02-19T13:42:31.872Z,33.20
2018-02-19T13:43:38.658Z,30.60
2018-02-19T13:44:45.476Z,31.50
2018-02-19T13:45:52.262Z,32.60
2018-02-19T13:46:59.025Z,32.10
2018-02-19T13:48:05.920Z,32.50
2018-02-19T13:49:12.732Z,32.30
2018-02-19T13:50:19.788Z,31.90
2018-02-19T13:51:26.584Z,34.90
2018-02-19T13:52:33.459Z,38.80
2018-02-19T13:53:40.232Z,41.70
2018-02-19T13:54:47.061Z,30.70
2018-02-19T13:55:53.894Z,33.50
2018-02-19T13:57:00.664Z,35.30
2018-02-19T13:58:07.457Z,32.50
2018-02-19T13:59:14.296Z,34.00
2018-02-19T14:00:21.076Z,32.50
2018-02-19T14:01:27.867Z,35.10
2018-02-19T14:02:34.715Z,34.90
2018-02-19T14:03:41.479Z,39.50
2018-02-19T14:04:48.582Z,35.10
2018-02-19T14:05:55.381Z,34.10
2018-02-19T14:07:02.104Z,36.60
2018-02-19T14:08:08.918Z,32.50
2018-02-19T14:09:15.701Z,32.20
2018-02-19T14:10:22.468Z,33.40
2018-02-19T14:11:29.389Z,33.10
2018-02-19T14:12:36.300Z,34.10
2018-02-19T14:13:43.086Z,36.90
2018-02-19T14:14:49.837Z,33.20
2018-02-19T14:15:56.628Z,35.60
2018-02-19T14:17:03.355Z,36.60
2018-02-19T14:18:10.190Z,35.90
2018-02-19T14:19:16.932Z,35.00
2018-02-19T14:20:23.700Z,35.90